Terminal Aerodrome Forecast
Issued by NWS

Home | Current Version | Previous Version | Text Only | Print | Product List | Glossary On
Versions: 1 2 3 4 5 6 7 8 9 10 11 12 13 14 15 16 17 18 19 20 21 22 23 24 25
000
FTUS46 KSGX 200300 AAB
TAFSAN
TAF AMD
KSAN 200302Z 2003/2106 22007KT P6SM SCT022 SCT100
     FM200500 17005KT P6SM OVC020
     FM201900 23009KT P6SM SCT020 SCT100
     FM210300 VRB05KT P6SM OVC020=

USA.gov is the U.S. government's official web portal to all federal, state and local government web resources and services.